sensor_id;sensor_type;location;lat;lon;timestamp;P1;durP1;ratioP1;P2;durP2;ratioP2
35330;SDS011;21441;52.190;20.910;2022-12-18T00:02:02;27.90;;;14.35;;
35330;SDS011;21441;52.190;20.910;2022-12-18T00:04:29;26.23;;;13.35;;
35330;SDS011;21441;52.190;20.910;2022-12-18T00:06:56;32.20;;;14.85;;
35330;SDS011;21441;52.190;20.910;2022-12-18T00:09:24;31.23;;;15.57;;
35330;SDS011;21441;52.190;20.910;2022-12-18T00:11:51;29.00;;;15.07;;
35330;SDS011;21441;52.190;20.910;2022-12-18T00:14:18;31.70;;;14.30;;
35330;SDS011;21441;52.190;20.910;2022-12-18T00:16:46;31.27;;;14.52;;
35330;SDS011;21441;52.190;20.910;2022-12-18T00:19:14;32.67;;;16.02;;
35330;SDS011;21441;52.190;20.910;2022-12-18T00:21:41;33.20;;;14.38;;
35330;SDS011;21441;52.190;20.910;2022-12-18T00:24:10;38.28;;;15.32;;
35330;SDS011;21441;52.190;20.910;2022-12-18T00:26:38;31.17;;;15.23;;
35330;SDS011;21441;52.190;20.910;2022-12-18T00:29:07;30.33;;;15.00;;
35330;SDS011;21441;52.190;20.910;2022-12-18T00:31:39;30.02;;;14.98;;
35330;SDS011;21441;52.190;20.910;2022-12-18T00:34:10;35.20;;;16.33;;
35330;SDS011;21441;52.190;20.910;2022-12-18T00:36:38;33.95;;;13.95;;
35330;SDS011;21441;52.190;20.910;2022-12-18T00:39:05;31.65;;;13.95;;
35330;SDS011;21441;52.190;20.910;2022-12-18T00:41:32;35.25;;;14.43;;
35330;SDS011;21441;52.190;20.910;2022-12-18T00:44:17;34.92;;;15.45;;
35330;SDS011;21441;52.190;20.910;2022-12-18T00:46:45;33.20;;;13.57;;
35330;SDS011;21441;52.190;20.910;2022-12-18T00:49:15;30.30;;;14.63;;
35330;SDS011;21441;52.190;20.910;2022-12-18T00:51:43;35.00;;;15.77;;
35330;SDS011;21441;52.190;20.910;2022-12-18T00:54:10;31.55;;;15.43;;
35330;SDS011;21441;52.190;20.910;2022-12-18T00:56:37;31.23;;;14.93;;
35330;SDS011;21441;52.190;20.910;2022-12-18T00:59:05;28.95;;;14.05;;
35330;SDS011;21441;52.190;20.910;2022-12-18T01:01:32;32.92;;;13.80;;
35330;SDS011;21441;52.190;20.910;2022-12-18T01:04:00;33.33;;;14.27;;
35330;SDS011;21441;52.190;20.910;2022-12-18T01:06:29;34.67;;;13.88;;
35330;SDS011;21441;52.190;20.910;2022-12-18T01:08:57;31.80;;;13.68;;
35330;SDS011;21441;52.190;20.910;2022-12-18T01:11:24;30.83;;;13.75;;
35330;SDS011;21441;52.190;20.910;2022-12-18T01:13:51;30.05;;;14.05;;
35330;SDS011;21441;52.190;20.910;2022-12-18T01:16:19;29.90;;;14.15;;
35330;SDS011;21441;52.190;20.910;2022-12-18T01:18:47;37.70;;;15.88;;
35330;SDS011;21441;52.190;20.910;2022-12-18T01:21:14;36.35;;;14.82;;
35330;SDS011;21441;52.190;20.910;2022-12-18T01:23:44;32.88;;;14.75;;
35330;SDS011;21441;52.190;20.910;2022-12-18T01:26:11;35.10;;;15.90;;
35330;SDS011;21441;52.190;20.910;2022-12-18T01:28:40;22.00;;;10.85;;
35330;SDS011;21441;52.190;20.910;2022-12-18T01:31:10;35.70;;;14.23;;
35330;SDS011;21441;52.190;20.910;2022-12-18T01:33:38;27.92;;;13.63;;
35330;SDS011;21441;52.190;20.910;2022-12-18T01:36:05;27.42;;;11.50;;
35330;SDS011;21441;52.190;20.910;2022-12-18T01:38:33;30.88;;;16.00;;
35330;SDS011;21441;52.190;20.910;2022-12-18T01:41:01;30.77;;;14.35;;
35330;SDS011;21441;52.190;20.910;2022-12-18T01:43:45;24.55;;;12.23;;
35330;SDS011;21441;52.190;20.910;2022-12-18T01:46:15;30.60;;;12.57;;
35330;SDS011;21441;52.190;20.910;2022-12-18T01:48:43;30.30;;;13.68;;
35330;SDS011;21441;52.190;20.910;2022-12-18T01:51:13;33.17;;;13.27;;
35330;SDS011;21441;52.190;20.910;2022-12-18T01:53:41;32.42;;;12.60;;
35330;SDS011;21441;52.190;20.910;2022-12-18T01:56:15;30.27;;;13.52;;
35330;SDS011;21441;52.190;20.910;2022-12-18T01:58:46;27.15;;;12.60;;
35330;SDS011;21441;52.190;20.910;2022-12-18T02:01:20;30.17;;;13.43;;
35330;SDS011;21441;52.190;20.910;2022-12-18T02:03:48;30.90;;;13.40;;
35330;SDS011;21441;52.190;20.910;2022-12-18T02:06:16;28.33;;;12.82;;
35330;SDS011;21441;52.190;20.910;2022-12-18T02:08:50;30.25;;;12.63;;
35330;SDS011;21441;52.190;20.910;2022-12-18T02:11:29;30.70;;;12.95;;
35330;SDS011;21441;52.190;20.910;2022-12-18T02:14:09;29.42;;;12.60;;
35330;SDS011;21441;52.190;20.910;2022-12-18T02:16:44;31.48;;;14.00;;
35330;SDS011;21441;52.190;20.910;2022-12-18T02:19:20;36.30;;;14.10;;
35330;SDS011;21441;52.190;20.910;2022-12-18T02:22:13;30.55;;;12.70;;
35330;SDS011;21441;52.190;20.910;2022-12-18T02:24:55;29.20;;;13.07;;
35330;SDS011;21441;52.190;20.910;2022-12-18T02:27:33;29.10;;;13.13;;
35330;SDS011;21441;52.190;20.910;2022-12-18T02:30:02;32.20;;;14.52;;
35330;SDS011;21441;52.190;20.910;2022-12-18T02:35:01;29.70;;;12.30;;
35330;SDS011;21441;52.190;20.910;2022-12-18T02:37:30;28.65;;;11.98;;
35330;SDS011;21441;52.190;20.910;2022-12-18T02:40:01;24.50;;;11.65;;
35330;SDS011;21441;52.190;20.910;2022-12-18T02:44:59;32.38;;;13.23;;
35330;SDS011;21441;52.190;20.910;2022-12-18T02:47:27;37.22;;;13.80;;
35330;SDS011;21441;52.190;20.910;2022-12-18T02:50:00;35.60;;;13.75;;
35330;SDS011;21441;52.190;20.910;2022-12-18T02:52:34;26.85;;;14.35;;
35330;SDS011;21441;52.190;20.910;2022-12-18T02:55:13;28.38;;;13.05;;
35330;SDS011;21441;52.190;20.910;2022-12-18T02:57:52;30.83;;;13.77;;
35330;SDS011;21441;52.190;20.910;2022-12-18T03:00:24;38.17;;;14.73;;
35330;SDS011;21441;52.190;20.910;2022-12-18T03:02:56;32.63;;;13.68;;
35330;SDS011;21441;52.190;20.910;2022-12-18T03:05:28;34.38;;;13.38;;
35330;SDS011;21441;52.190;20.910;2022-12-18T03:08:00;34.58;;;14.15;;
35330;SDS011;21441;52.190;20.910;2022-12-18T03:10:33;30.30;;;13.77;;
35330;SDS011;21441;52.190;20.910;2022-12-18T03:13:07;36.80;;;13.82;;
35330;SDS011;21441;52.190;20.910;2022-12-18T03:15:39;37.50;;;15.68;;
35330;SDS011;21441;52.190;20.910;2022-12-18T03:18:11;33.35;;;14.30;;
35330;SDS011;21441;52.190;20.910;2022-12-18T03:20:42;32.03;;;13.25;;
35330;SDS011;21441;52.190;20.910;2022-12-18T03:23:12;30.83;;;12.30;;
35330;SDS011;21441;52.190;20.910;2022-12-18T03:25:43;29.40;;;12.27;;
35330;SDS011;21441;52.190;20.910;2022-12-18T03:30:43;27.58;;;11.30;;
35330;SDS011;21441;52.190;20.910;2022-12-18T03:33:13;29.92;;;12.50;;
35330;SDS011;21441;52.190;20.910;2022-12-18T03:35:45;24.55;;;12.13;;
35330;SDS011;21441;52.190;20.910;2022-12-18T03:38:12;34.63;;;14.60;;
35330;SDS011;21441;52.190;20.910;2022-12-18T03:40:43;34.08;;;13.95;;
35330;SDS011;21441;52.190;20.910;2022-12-18T03:43:18;24.65;;;12.57;;
35330;SDS011;21441;52.190;20.910;2022-12-18T03:45:52;30.92;;;12.48;;
35330;SDS011;21441;52.190;20.910;2022-12-18T03:48:26;27.33;;;13.20;;
35330;SDS011;21441;52.190;20.910;2022-12-18T03:50:59;29.77;;;13.05;;
35330;SDS011;21441;52.190;20.910;2022-12-18T03:53:32;28.17;;;12.82;;
35330;SDS011;21441;52.190;20.910;2022-12-18T03:56:06;34.22;;;14.95;;
35330;SDS011;21441;52.190;20.910;2022-12-18T03:58:37;33.13;;;14.38;;
35330;SDS011;21441;52.190;20.910;2022-12-18T04:01:06;32.15;;;12.48;;
35330;SDS011;21441;52.190;20.910;2022-12-18T04:03:37;29.33;;;14.05;;
35330;SDS011;21441;52.190;20.910;2022-12-18T04:06:05;29.73;;;13.07;;
35330;SDS011;21441;52.190;20.910;2022-12-18T04:08:33;31.65;;;13.52;;
35330;SDS011;21441;52.190;20.910;2022-12-18T04:11:01;29.88;;;11.10;;
35330;SDS011;21441;52.190;20.910;2022-12-18T04:13:29;27.73;;;12.00;;
35330;SDS011;21441;52.190;20.910;2022-12-18T04:16:01;25.88;;;12.60;;
35330;SDS011;21441;52.190;20.910;2022-12-18T04:18:28;27.52;;;13.23;;
35330;SDS011;21441;52.190;20.910;2022-12-18T04:20:56;26.33;;;10.75;;
35330;SDS011;21441;52.190;20.910;2022-12-18T04:23:23;28.92;;;11.65;;
35330;SDS011;21441;52.190;20.910;2022-12-18T04:25:50;29.60;;;13.35;;
35330;SDS011;21441;52.190;20.910;2022-12-18T04:28:17;25.20;;;12.65;;
35330;SDS011;21441;52.190;20.910;2022-12-18T04:30:45;27.05;;;11.60;;
35330;SDS011;21441;52.190;20.910;2022-12-18T04:33:13;30.10;;;13.32;;
35330;SDS011;21441;52.190;20.910;2022-12-18T04:35:41;31.77;;;13.50;;
35330;SDS011;21441;52.190;20.910;2022-12-18T04:38:08;31.95;;;12.93;;
35330;SDS011;21441;52.190;20.910;2022-12-18T04:40:36;41.08;;;15.73;;
35330;SDS011;21441;52.190;20.910;2022-12-18T04:43:04;31.67;;;13.93;;
35330;SDS011;21441;52.190;20.910;2022-12-18T04:45:32;32.03;;;12.43;;
35330;SDS011;21441;52.190;20.910;2022-12-18T04:47:59;30.02;;;12.18;;
35330;SDS011;21441;52.190;20.910;2022-12-18T04:50:28;33.78;;;13.60;;
35330;SDS011;21441;52.190;20.910;2022-12-18T04:52:57;35.10;;;13.57;;
35330;SDS011;21441;52.190;20.910;2022-12-18T04:55:24;30.02;;;12.85;;
35330;SDS011;21441;52.190;20.910;2022-12-18T04:57:51;31.73;;;15.63;;
35330;SDS011;21441;52.190;20.910;2022-12-18T05:00:19;33.20;;;13.93;;
35330;SDS011;21441;52.190;20.910;2022-12-18T05:02:46;34.40;;;14.60;;
35330;SDS011;21441;52.190;20.910;2022-12-18T05:05:14;37.28;;;16.42;;
35330;SDS011;21441;52.190;20.910;2022-12-18T05:07:42;35.80;;;14.95;;
35330;SDS011;21441;52.190;20.910;2022-12-18T05:10:10;33.42;;;15.20;;
35330;SDS011;21441;52.190;20.910;2022-12-18T05:12:37;33.05;;;14.30;;
35330;SDS011;21441;52.190;20.910;2022-12-18T05:15:24;35.60;;;14.07;;
35330;SDS011;21441;52.190;20.910;2022-12-18T05:17:52;29.67;;;10.97;;
35330;SDS011;21441;52.190;20.910;2022-12-18T05:20:19;29.52;;;12.95;;
35330;SDS011;21441;52.190;20.910;2022-12-18T05:22:48;35.75;;;14.82;;
35330;SDS011;21441;52.190;20.910;2022-12-18T05:25:15;37.42;;;14.82;;
35330;SDS011;21441;52.190;20.910;2022-12-18T05:27:44;36.10;;;14.93;;
35330;SDS011;21441;52.190;20.910;2022-12-18T05:30:12;31.65;;;14.73;;
35330;SDS011;21441;52.190;20.910;2022-12-18T05:32:39;39.15;;;14.40;;
35330;SDS011;21441;52.190;20.910;2022-12-18T05:35:10;33.58;;;14.50;;
35330;SDS011;21441;52.190;20.910;2022-12-18T05:37:38;36.72;;;15.60;;
35330;SDS011;21441;52.190;20.910;2022-12-18T05:40:08;36.60;;;14.93;;
35330;SDS011;21441;52.190;20.910;2022-12-18T05:45:03;38.95;;;13.73;;
35330;SDS011;21441;52.190;20.910;2022-12-18T05:47:31;37.83;;;15.48;;
35330;SDS011;21441;52.190;20.910;2022-12-18T05:49:58;36.90;;;14.50;;
35330;SDS011;21441;52.190;20.910;2022-12-18T05:52:25;35.55;;;14.90;;
35330;SDS011;21441;52.190;20.910;2022-12-18T05:54:52;38.60;;;17.17;;
35330;SDS011;21441;52.190;20.910;2022-12-18T05:57:20;34.58;;;14.23;;
35330;SDS011;21441;52.190;20.910;2022-12-18T05:59:48;32.72;;;15.73;;
35330;SDS011;21441;52.190;20.910;2022-12-18T06:02:15;38.78;;;14.18;;
35330;SDS011;21441;52.190;20.910;2022-12-18T06:04:42;29.67;;;13.60;;
35330;SDS011;21441;52.190;20.910;2022-12-18T06:07:09;35.65;;;13.43;;
35330;SDS011;21441;52.190;20.910;2022-12-18T06:09:36;32.72;;;14.80;;
35330;SDS011;21441;52.190;20.910;2022-12-18T06:12:04;39.05;;;15.00;;
35330;SDS011;21441;52.190;20.910;2022-12-18T06:14:33;33.50;;;14.18;;
35330;SDS011;21441;52.190;20.910;2022-12-18T06:17:00;41.92;;;15.98;;
35330;SDS011;21441;52.190;20.910;2022-12-18T06:19:27;38.35;;;14.85;;
35330;SDS011;21441;52.190;20.910;2022-12-18T06:21:54;36.20;;;14.32;;
35330;SDS011;21441;52.190;20.910;2022-12-18T06:24:23;35.67;;;15.13;;
35330;SDS011;21441;52.190;20.910;2022-12-18T06:26:50;34.33;;;14.55;;
35330;SDS011;21441;52.190;20.910;2022-12-18T06:29:17;36.38;;;16.08;;
35330;SDS011;21441;52.190;20.910;2022-12-18T06:31:46;38.95;;;14.30;;
35330;SDS011;21441;52.190;20.910;2022-12-18T06:34:13;40.08;;;15.40;;
35330;SDS011;21441;52.190;20.910;2022-12-18T06:36:40;38.03;;;16.40;;
35330;SDS011;21441;52.190;20.910;2022-12-18T06:39:07;35.97;;;16.77;;
35330;SDS011;21441;52.190;20.910;2022-12-18T06:41:34;34.22;;;16.80;;
35330;SDS011;21441;52.190;20.910;2022-12-18T06:44:01;36.42;;;15.95;;
35330;SDS011;21441;52.190;20.910;2022-12-18T06:46:29;40.42;;;15.70;;
35330;SDS011;21441;52.190;20.910;2022-12-18T06:48:59;39.17;;;15.18;;
35330;SDS011;21441;52.190;20.910;2022-12-18T06:51:26;33.97;;;14.15;;
35330;SDS011;21441;52.190;20.910;2022-12-18T06:53:53;37.50;;;16.25;;
35330;SDS011;21441;52.190;20.910;2022-12-18T06:56:20;40.03;;;15.32;;
35330;SDS011;21441;52.190;20.910;2022-12-18T06:58:47;37.70;;;14.13;;
35330;SDS011;21441;52.190;20.910;2022-12-18T07:01:14;40.70;;;14.70;;
35330;SDS011;21441;52.190;20.910;2022-12-18T07:03:42;37.75;;;16.23;;
35330;SDS011;21441;52.190;20.910;2022-12-18T07:06:14;36.40;;;13.95;;
35330;SDS011;21441;52.190;20.910;2022-12-18T07:08:42;35.30;;;14.63;;
35330;SDS011;21441;52.190;20.910;2022-12-18T07:11:10;41.35;;;16.77;;
35330;SDS011;21441;52.190;20.910;2022-12-18T07:13:37;41.53;;;16.00;;
35330;SDS011;21441;52.190;20.910;2022-12-18T07:16:05;44.58;;;17.63;;
35330;SDS011;21441;52.190;20.910;2022-12-18T07:18:34;37.83;;;15.00;;
35330;SDS011;21441;52.190;20.910;2022-12-18T07:21:04;35.40;;;14.52;;
35330;SDS011;21441;52.190;20.910;2022-12-18T07:23:34;37.10;;;16.27;;
35330;SDS011;21441;52.190;20.910;2022-12-18T07:26:02;40.45;;;16.67;;
35330;SDS011;21441;52.190;20.910;2022-12-18T07:28:30;48.85;;;18.85;;
35330;SDS011;21441;52.190;20.910;2022-12-18T07:30:57;39.13;;;14.82;;
35330;SDS011;21441;52.190;20.910;2022-12-18T07:33:25;39.47;;;15.50;;
35330;SDS011;21441;52.190;20.910;2022-12-18T07:35:52;37.15;;;16.00;;
35330;SDS011;21441;52.190;20.910;2022-12-18T07:38:20;38.47;;;17.23;;
35330;SDS011;21441;52.190;20.910;2022-12-18T07:40:48;37.60;;;16.08;;
35330;SDS011;21441;52.190;20.910;2022-12-18T07:43:16;45.28;;;16.85;;
35330;SDS011;21441;52.190;20.910;2022-12-18T07:45:43;42.85;;;15.27;;
35330;SDS011;21441;52.190;20.910;2022-12-18T07:48:10;48.17;;;19.10;;
35330;SDS011;21441;52.190;20.910;2022-12-18T07:50:37;42.97;;;16.92;;
35330;SDS011;21441;52.190;20.910;2022-12-18T07:53:05;34.72;;;16.83;;
35330;SDS011;21441;52.190;20.910;2022-12-18T07:55:32;35.42;;;14.35;;
35330;SDS011;21441;52.190;20.910;2022-12-18T07:58:04;40.80;;;16.27;;
35330;SDS011;21441;52.190;20.910;2022-12-18T08:00:31;41.88;;;17.05;;
35330;SDS011;21441;52.190;20.910;2022-12-18T08:02:58;40.03;;;16.55;;
35330;SDS011;21441;52.190;20.910;2022-12-18T08:05:25;41.28;;;17.52;;
35330;SDS011;21441;52.190;20.910;2022-12-18T08:07:52;40.90;;;16.75;;
35330;SDS011;21441;52.190;20.910;2022-12-18T08:10:20;36.38;;;14.73;;
35330;SDS011;21441;52.190;20.910;2022-12-18T08:12:48;36.05;;;13.75;;
35330;SDS011;21441;52.190;20.910;2022-12-18T08:15:17;32.00;;;17.20;;
35330;SDS011;21441;52.190;20.910;2022-12-18T08:17:45;40.10;;;16.60;;
35330;SDS011;21441;52.190;20.910;2022-12-18T08:20:12;39.10;;;16.95;;
35330;SDS011;21441;52.190;20.910;2022-12-18T08:22:40;44.13;;;18.90;;
35330;SDS011;21441;52.190;20.910;2022-12-18T08:25:08;34.80;;;15.85;;
35330;SDS011;21441;52.190;20.910;2022-12-18T08:27:36;40.20;;;15.70;;
35330;SDS011;21441;52.190;20.910;2022-12-18T08:30:03;36.70;;;16.42;;
35330;SDS011;21441;52.190;20.910;2022-12-18T08:32:32;46.15;;;17.80;;
35330;SDS011;21441;52.190;20.910;2022-12-18T08:34:59;37.45;;;16.35;;
35330;SDS011;21441;52.190;20.910;2022-12-18T08:37:26;20.13;;;11.27;;
35330;SDS011;21441;52.190;20.910;2022-12-18T08:39:53;40.92;;;18.45;;
35330;SDS011;21441;52.190;20.910;2022-12-18T08:42:21;44.95;;;17.67;;
35330;SDS011;21441;52.190;20.910;2022-12-18T08:45:06;31.25;;;16.33;;
35330;SDS011;21441;52.190;20.910;2022-12-18T08:47:35;24.17;;;13.30;;
35330;SDS011;21441;52.190;20.910;2022-12-18T08:50:02;29.90;;;13.70;;
35330;SDS011;21441;52.190;20.910;2022-12-18T08:52:31;26.27;;;13.65;;
35330;SDS011;21441;52.190;20.910;2022-12-18T08:54:58;41.38;;;19.05;;
35330;SDS011;21441;52.190;20.910;2022-12-18T08:57:25;37.45;;;17.33;;
35330;SDS011;21441;52.190;20.910;2022-12-18T08:59:52;47.58;;;18.95;;
35330;SDS011;21441;52.190;20.910;2022-12-18T09:02:19;30.55;;;13.70;;
35330;SDS011;21441;52.190;20.910;2022-12-18T09:04:48;33.58;;;15.02;;
35330;SDS011;21441;52.190;20.910;2022-12-18T09:07:15;27.85;;;12.95;;
35330;SDS011;21441;52.190;20.910;2022-12-18T09:09:42;38.50;;;15.57;;
35330;SDS011;21441;52.190;20.910;2022-12-18T09:12:09;38.20;;;17.83;;
35330;SDS011;21441;52.190;20.910;2022-12-18T09:14:36;47.17;;;18.25;;
35330;SDS011;21441;52.190;20.910;2022-12-18T09:17:04;42.92;;;18.02;;
35330;SDS011;21441;52.190;20.910;2022-12-18T09:19:32;46.25;;;19.05;;
35330;SDS011;21441;52.190;20.910;2022-12-18T09:22:00;43.00;;;19.10;;
35330;SDS011;21441;52.190;20.910;2022-12-18T09:24:27;31.48;;;15.05;;
35330;SDS011;21441;52.190;20.910;2022-12-18T09:26:55;49.55;;;17.92;;
35330;SDS011;21441;52.190;20.910;2022-12-18T09:29:22;51.55;;;20.92;;
35330;SDS011;21441;52.190;20.910;2022-12-18T09:31:49;43.83;;;16.95;;
35330;SDS011;21441;52.190;20.910;2022-12-18T09:34:16;42.08;;;19.58;;
35330;SDS011;21441;52.190;20.910;2022-12-18T09:36:44;41.45;;;18.05;;
35330;SDS011;21441;52.190;20.910;2022-12-18T09:39:12;46.90;;;19.38;;
35330;SDS011;21441;52.190;20.910;2022-12-18T09:41:41;51.25;;;20.65;;
35330;SDS011;21441;52.190;20.910;2022-12-18T09:44:13;36.60;;;12.60;;
35330;SDS011;21441;52.190;20.910;2022-12-18T09:46:47;43.75;;;20.60;;
35330;SDS011;21441;52.190;20.910;2022-12-18T09:49:21;36.70;;;17.98;;
35330;SDS011;21441;52.190;20.910;2022-12-18T09:51:52;36.35;;;17.08;;
35330;SDS011;21441;52.190;20.910;2022-12-18T09:54:25;38.10;;;16.42;;
35330;SDS011;21441;52.190;20.910;2022-12-18T09:56:58;46.25;;;19.77;;
35330;SDS011;21441;52.190;20.910;2022-12-18T09:59:26;56.90;;;24.23;;
35330;SDS011;21441;52.190;20.910;2022-12-18T10:01:58;40.97;;;16.33;;
35330;SDS011;21441;52.190;20.910;2022-12-18T10:04:25;50.80;;;18.63;;
35330;SDS011;21441;52.190;20.910;2022-12-18T10:06:59;63.05;;;22.65;;
35330;SDS011;21441;52.190;20.910;2022-12-18T10:09:36;53.90;;;22.48;;
35330;SDS011;21441;52.190;20.910;2022-12-18T10:12:10;52.95;;;20.30;;
35330;SDS011;21441;52.190;20.910;2022-12-18T10:14:47;46.75;;;19.95;;
35330;SDS011;21441;52.190;20.910;2022-12-18T10:17:25;50.25;;;20.33;;
35330;SDS011;21441;52.190;20.910;2022-12-18T10:19:58;44.50;;;19.02;;
35330;SDS011;21441;52.190;20.910;2022-12-18T10:22:38;45.47;;;18.67;;
35330;SDS011;21441;52.190;20.910;2022-12-18T10:25:17;44.75;;;20.75;;
35330;SDS011;21441;52.190;20.910;2022-12-18T10:27:51;52.65;;;19.90;;
35330;SDS011;21441;52.190;20.910;2022-12-18T10:30:20;41.42;;;16.10;;
35330;SDS011;21441;52.190;20.910;2022-12-18T10:32:49;38.93;;;17.03;;
35330;SDS011;21441;52.190;20.910;2022-12-18T10:35:17;47.03;;;18.77;;
35330;SDS011;21441;52.190;20.910;2022-12-18T10:37:59;37.13;;;15.07;;
35330;SDS011;21441;52.190;20.910;2022-12-18T10:40:28;48.92;;;17.38;;
35330;SDS011;21441;52.190;20.910;2022-12-18T10:43:09;37.17;;;14.37;;
35330;SDS011;21441;52.190;20.910;2022-12-18T10:45:38;43.28;;;16.00;;
35330;SDS011;21441;52.190;20.910;2022-12-18T10:48:17;52.20;;;20.98;;
35330;SDS011;21441;52.190;20.910;2022-12-18T10:50:46;50.40;;;20.77;;
35330;SDS011;21441;52.190;20.910;2022-12-18T10:53:18;36.67;;;16.48;;
35330;SDS011;21441;52.190;20.910;2022-12-18T10:55:49;42.03;;;15.65;;
35330;SDS011;21441;52.190;20.910;2022-12-18T10:58:25;32.95;;;14.52;;
35330;SDS011;21441;52.190;20.910;2022-12-18T11:01:05;33.28;;;16.67;;
35330;SDS011;21441;52.190;20.910;2022-12-18T11:03:38;45.10;;;20.05;;
35330;SDS011;21441;52.190;20.910;2022-12-18T11:06:08;44.83;;;18.52;;
35330;SDS011;21441;52.190;20.910;2022-12-18T11:08:36;54.70;;;20.10;;
35330;SDS011;21441;52.190;20.910;2022-12-18T11:11:14;45.10;;;18.83;;
35330;SDS011;21441;52.190;20.910;2022-12-18T11:13:48;53.50;;;20.08;;
35330;SDS011;21441;52.190;20.910;2022-12-18T11:16:24;51.65;;;20.58;;
35330;SDS011;21441;52.190;20.910;2022-12-18T11:18:52;50.55;;;20.95;;
35330;SDS011;21441;52.190;20.910;2022-12-18T11:21:19;44.25;;;18.73;;
35330;SDS011;21441;52.190;20.910;2022-12-18T11:23:47;44.80;;;17.30;;
35330;SDS011;21441;52.190;20.910;2022-12-18T11:26:19;58.35;;;21.42;;
35330;SDS011;21441;52.190;20.910;2022-12-18T11:28:49;53.95;;;21.17;;
35330;SDS011;21441;52.190;20.910;2022-12-18T11:31:19;56.72;;;21.95;;
35330;SDS011;21441;52.190;20.910;2022-12-18T11:33:51;45.75;;;21.02;;
35330;SDS011;21441;52.190;20.910;2022-12-18T11:36:22;54.53;;;21.25;;
35330;SDS011;21441;52.190;20.910;2022-12-18T11:38:50;50.60;;;21.02;;
35330;SDS011;21441;52.190;20.910;2022-12-18T11:44:13;45.80;;;19.55;;
35330;SDS011;21441;52.190;20.910;2022-12-18T11:46:45;46.15;;;17.85;;
35330;SDS011;21441;52.190;20.910;2022-12-18T11:49:17;47.78;;;19.02;;
35330;SDS011;21441;52.190;20.910;2022-12-18T11:51:50;49.40;;;22.20;;
35330;SDS011;21441;52.190;20.910;2022-12-18T11:54:23;46.95;;;19.77;;
35330;SDS011;21441;52.190;20.910;2022-12-18T11:56:53;36.45;;;18.75;;
35330;SDS011;21441;52.190;20.910;2022-12-18T11:59:28;40.13;;;15.80;;
35330;SDS011;21441;52.190;20.910;2022-12-18T12:02:11;44.17;;;17.30;;
35330;SDS011;21441;52.190;20.910;2022-12-18T12:04:59;41.60;;;19.83;;
35330;SDS011;21441;52.190;20.910;2022-12-18T12:07:38;46.97;;;20.85;;
35330;SDS011;21441;52.190;20.910;2022-12-18T12:10:20;43.22;;;20.55;;
35330;SDS011;21441;52.190;20.910;2022-12-18T12:13:04;46.65;;;21.77;;
35330;SDS011;21441;52.190;20.910;2022-12-18T12:15:45;49.33;;;22.63;;
35330;SDS011;21441;52.190;20.910;2022-12-18T12:18:25;50.15;;;22.30;;
35330;SDS011;21441;52.190;20.910;2022-12-18T12:21:00;50.45;;;22.48;;
35330;SDS011;21441;52.190;20.910;2022-12-18T12:23:34;51.15;;;23.10;;
35330;SDS011;21441;52.190;20.910;2022-12-18T12:26:12;46.20;;;21.80;;
35330;SDS011;21441;52.190;20.910;2022-12-18T12:28:54;49.35;;;22.85;;
35330;SDS011;21441;52.190;20.910;2022-12-18T12:31:33;57.55;;;25.17;;
35330;SDS011;21441;52.190;20.910;2022-12-18T12:34:12;70.97;;;31.52;;
35330;SDS011;21441;52.190;20.910;2022-12-18T12:36:50;57.80;;;25.88;;
35330;SDS011;21441;52.190;20.910;2022-12-18T12:39:28;51.40;;;21.92;;
35330;SDS011;21441;52.190;20.910;2022-12-18T12:41:59;49.75;;;21.65;;
35330;SDS011;21441;52.190;20.910;2022-12-18T12:44:47;51.05;;;21.65;;
35330;SDS011;21441;52.190;20.910;2022-12-18T12:47:19;46.08;;;20.08;;
35330;SDS011;21441;52.190;20.910;2022-12-18T12:49:49;58.05;;;22.65;;
35330;SDS011;21441;52.190;20.910;2022-12-18T12:52:27;63.78;;;27.70;;
35330;SDS011;21441;52.190;20.910;2022-12-18T12:54:57;64.25;;;23.05;;
35330;SDS011;21441;52.190;20.910;2022-12-18T12:57:27;48.08;;;21.77;;
35330;SDS011;21441;52.190;20.910;2022-12-18T13:00:03;60.80;;;22.95;;
35330;SDS011;21441;52.190;20.910;2022-12-18T13:02:35;52.20;;;21.23;;
35330;SDS011;21441;52.190;20.910;2022-12-18T13:05:10;56.05;;;20.70;;
35330;SDS011;21441;52.190;20.910;2022-12-18T13:07:46;51.58;;;20.08;;
35330;SDS011;21441;52.190;20.910;2022-12-18T13:10:23;56.00;;;21.75;;
35330;SDS011;21441;52.190;20.910;2022-12-18T13:12:53;46.50;;;18.70;;
35330;SDS011;21441;52.190;20.910;2022-12-18T13:15:23;42.70;;;19.27;;
35330;SDS011;21441;52.190;20.910;2022-12-18T13:18:03;34.50;;;15.77;;
35330;SDS011;21441;52.190;20.910;2022-12-18T13:20:32;56.55;;;24.23;;
35330;SDS011;21441;52.190;20.910;2022-12-18T13:23:04;50.53;;;22.17;;
35330;SDS011;21441;52.190;20.910;2022-12-18T13:25:46;47.38;;;18.70;;
35330;SDS011;21441;52.190;20.910;2022-12-18T13:28:14;50.63;;;21.45;;
35330;SDS011;21441;52.190;20.910;2022-12-18T13:30:45;47.80;;;20.48;;
35330;SDS011;21441;52.190;20.910;2022-12-18T13:36:26;48.38;;;21.77;;
35330;SDS011;21441;52.190;20.910;2022-12-18T13:45:41;47.42;;;21.05;;
35330;SDS011;21441;52.190;20.910;2022-12-18T13:48:22;55.67;;;22.60;;
35330;SDS011;21441;52.190;20.910;2022-12-18T13:50:52;50.03;;;21.15;;
35330;SDS011;21441;52.190;20.910;2022-12-18T13:53:24;52.33;;;21.65;;
35330;SDS011;21441;52.190;20.910;2022-12-18T13:55:54;45.22;;;21.55;;
35330;SDS011;21441;52.190;20.910;2022-12-18T13:58:21;52.03;;;22.88;;
35330;SDS011;21441;52.190;20.910;2022-12-18T14:00:48;46.08;;;21.45;;
35330;SDS011;21441;52.190;20.910;2022-12-18T14:03:17;55.10;;;26.08;;
35330;SDS011;21441;52.190;20.910;2022-12-18T14:05:47;60.80;;;24.58;;
35330;SDS011;21441;52.190;20.910;2022-12-18T14:08:21;54.05;;;22.25;;
35330;SDS011;21441;52.190;20.910;2022-12-18T14:10:49;47.55;;;18.83;;
35330;SDS011;21441;52.190;20.910;2022-12-18T14:13:23;61.85;;;24.90;;
35330;SDS011;21441;52.190;20.910;2022-12-18T14:15:53;39.42;;;17.52;;
35330;SDS011;21441;52.190;20.910;2022-12-18T14:18:21;53.20;;;23.05;;
35330;SDS011;21441;52.190;20.910;2022-12-18T14:20:56;50.60;;;21.92;;
35330;SDS011;21441;52.190;20.910;2022-12-18T14:23:28;46.92;;;22.83;;
35330;SDS011;21441;52.190;20.910;2022-12-18T14:25:57;54.53;;;22.58;;
35330;SDS011;21441;52.190;20.910;2022-12-18T14:28:24;65.00;;;25.73;;
35330;SDS011;21441;52.190;20.910;2022-12-18T14:30:52;47.28;;;19.80;;
35330;SDS011;21441;52.190;20.910;2022-12-18T14:33:23;55.97;;;19.65;;
35330;SDS011;21441;52.190;20.910;2022-12-18T14:35:54;48.38;;;16.85;;
35330;SDS011;21441;52.190;20.910;2022-12-18T14:38:27;58.83;;;22.02;;
35330;SDS011;21441;52.190;20.910;2022-12-18T14:43:23;52.78;;;19.00;;
35330;SDS011;21441;52.190;20.910;2022-12-18T14:45:51;47.20;;;19.88;;
35330;SDS011;21441;52.190;20.910;2022-12-18T14:48:19;39.88;;;18.38;;
35330;SDS011;21441;52.190;20.910;2022-12-18T14:50:55;54.72;;;22.45;;
35330;SDS011;21441;52.190;20.910;2022-12-18T14:53:29;63.42;;;22.77;;